Time;durP1;ratioP1;P1;durP2;ratioP2;P2;SDS_P1;SDS_P2;PMS_P1;PMS_P2;Temp;Humidity;BMP_temperature;BMP_pressure;BME280_temperature;BME280_humidity;BME280_pressure;Samples;Min_cycle;Max_cycle;Signal;HPM_P1;HPM_P2
2022/04/18 00:01:45;;;;;;;8.98;4.35;;;;;;;2.49;71.79;99188.35;1747965;80;21042;-84
2022/04/18 00:04:12;;;;;;;9.13;4.58;;;;;;;2.44;71.41;99188.72;1747940;81;21033;-84
2022/04/18 00:06:39;;;;;;;7.72;4.37;;;;;;;2.42;71.68;99182.72;1732808;80;21123;-83
2022/04/18 00:09:06;;;;;;;8.08;3.27;;;;;;;2.38;70.74;99182.25;1736098;81;21104;-84
2022/04/18 00:11:34;;;;;;;9.30;4.55;;;;;;;2.33;70.63;99181.38;1736318;81;21051;-83
2022/04/18 00:14:01;;;;;;;6.28;3.55;;;;;;;2.29;70.89;99180.47;1736321;81;21106;-82
2022/04/18 00:16:28;;;;;;;8.18;4.30;;;;;;;2.27;70.98;99177.43;1733548;79;21153;-83
2022/04/18 00:18:55;;;;;;;8.50;4.28;;;;;;;2.23;71.10;99180.81;1713129;79;21159;-84
2022/04/18 00:21:23;;;;;;;8.60;4.40;;;;;;;2.20;70.78;99171.39;1672002;85;21020;-84
2022/04/18 00:23:50;;;;;;;12.30;5.33;;;;;;;2.15;70.08;99175.20;1672200;86;21082;-84
2022/04/18 00:26:17;;;;;;;9.38;4.72;;;;;;;2.11;70.90;99166.16;1672105;82;21040;-84
2022/04/18 00:31:37;;;;;;;8.08;3.70;;;;;;;2.03;71.11;99160.09;1648328;86;21031;-83
2022/04/18 00:34:05;;;;;;;9.35;4.67;;;;;;;2.02;71.29;99158.39;1648300;86;21139;-82
2022/04/18 00:36:36;;;;;;;7.25;3.80;;;;;;;1.96;71.15;99165.17;1666690;81;21098;31
2022/04/18 00:39:03;;;;;;;9.53;4.40;;;;;;;1.93;71.45;99158.73;1679945;83;21035;-84
2022/04/18 00:47:45;;;;;;;10.23;4.83;;;;;;;1.75;71.64;99153.39;1685633;81;21110;31
2022/04/18 00:50:13;;;;;;;8.48;4.08;;;;;;;1.72;71.63;99154.66;1734042;81;21031;-84
2022/04/18 00:58:15;;;;;;;9.18;4.25;;;;;;;1.73;72.17;99145.70;1705369;80;21122;31
2022/04/18 01:00:42;;;;;;;8.48;4.47;;;;;;;1.74;71.96;99147.41;1687688;83;21116;-84
2022/04/18 01:03:09;;;;;;;8.05;3.80;;;;;;;1.71;72.28;99148.67;1684755;85;21081;-83
2022/04/18 01:11:42;;;;;;;30.00;4.53;;;;;;;1.55;71.06;99146.75;1691322;81;21381;31
2022/04/18 01:55:48;;;;;;;8.70;4.13;;;;;;;0.94;71.30;99093.92;1727230;79;21113;31
2022/04/18 02:01:42;;;;;;;6.87;3.83;;;;;;;0.88;72.90;99088.72;1677037;80;21398;31
2022/04/18 02:28:56;;;;;;;19.20;7.62;;;;;;;0.67;73.25;99065.39;1700448;81;21177;31
2022/04/18 02:40:38;;;;;;;8.23;3.72;;;;;;;0.42;73.64;99059.92;1719051;80;21093;31
2022/04/18 02:48:52;;;;;;;7.55;3.35;;;;;;;0.34;73.31;99061.52;1692997;80;22545;31
2022/04/18 02:54:48;;;;;;;9.53;4.33;;;;;;;0.27;72.45;99058.41;1705799;80;21085;31
2022/04/18 03:13:18;;;;;;;13.62;4.35;;;;;;;-0.10;74.33;99051.40;1689807;81;21156;31
2022/04/18 03:19:07;;;;;;;8.43;4.58;;;;;;;-0.11;74.68;99048.42;1710088;79;21120;31
2022/04/18 03:33:49;;;;;;;13.43;5.15;;;;;;;-0.02;75.88;99036.66;1736503;80;21062;-84
2022/04/18 03:41:47;;;;;;;10.35;4.80;;;;;;;0.01;76.77;99035.84;1712062;82;21023;-82
2022/04/18 03:59:06;;;;;;;11.88;5.10;;;;;;;-0.07;77.20;99033.58;1696017;80;21239;31
2022/04/18 04:01:35;;;;;;;9.45;4.83;;;;;;;-0.09;77.71;99030.98;1696487;80;21099;-83
2022/04/18 04:04:02;;;;;;;13.35;6.40;;;;;;;-0.08;76.98;99035.67;1676565;83;21038;-83
2022/04/18 04:15:39;;;;;;;13.13;7.03;;;;;;;-0.04;76.47;99025.95;1707434;81;21062;-84
2022/04/18 04:18:08;;;;;;;13.65;8.30;;;;;;;-0.02;77.07;99025.55;1706807;82;21054;-83
2022/04/18 04:20:35;;;;;;;14.58;6.00;;;;;;;-0.02;76.01;99025.16;1700328;81;21031;-85
2022/04/18 04:31:34;;;;;;;14.17;6.53;;;;;;;0.09;76.64;99024.03;1711898;81;21136;31
2022/04/18 04:34:12;;;;;;;22.73;9.30;;;;;;;0.16;77.12;99031.38;1670274;80;22489;31
2022/04/18 05:20:50;;;;;;;10.55;5.22;;;;;;;1.29;72.91;99020.50;1690591;81;21161;-78
2022/04/18 05:23:21;;;;;;;14.43;5.97;;;;;;;1.32;72.96;99018.42;1694425;80;21116;-84
2022/04/18 05:25:50;;;;;;;11.95;5.30;;;;;;;1.38;73.17;99015.48;1694467;81;21114;-85
2022/04/18 05:28:17;;;;;;;9.90;4.90;;;;;;;1.48;72.87;99022.00;1694473;80;21063;-84
2022/04/18 05:30:46;;;;;;;13.10;5.53;;;;;;;1.56;72.88;99022.50;1701597;79;23274;-82
2022/04/18 05:33:13;;;;;;;14.40;5.83;;;;;;;1.69;72.19;99027.34;1704793;83;21060;-84
2022/04/18 05:35:48;;;;;;;13.53;5.67;;;;;;;1.73;71.31;99022.68;1685968;81;21039;-84
2022/04/18 05:38:17;;;;;;;14.10;6.33;;;;;;;1.80;70.66;99021.02;1733291;81;21087;-85
2022/04/18 05:40:46;;;;;;;14.13;5.05;;;;;;;1.87;70.67;99017.67;1722485;80;21166;-83
2022/04/18 05:43:14;;;;;;;13.22;6.00;;;;;;;1.93;70.65;99015.56;1755675;82;21092;-85
2022/04/18 05:45:42;;;;;;;13.80;5.65;;;;;;;1.97;70.71;99019.47;1726847;82;20993;-84
2022/04/18 05:48:11;;;;;;;9.50;5.17;;;;;;;2.06;69.82;99022.52;1718646;80;21116;-84
2022/04/18 05:50:45;;;;;;;15.68;5.45;;;;;;;2.09;70.14;99022.55;1700283;84;21051;-84
2022/04/18 05:53:12;;;;;;;10.55;5.22;;;;;;;2.16;69.98;99017.89;1679433;81;21124;-84
2022/04/18 05:56:08;;;;;;;12.53;5.08;;;;;;;2.26;69.12;99024.38;1718506;80;21051;-84
2022/04/18 05:58:37;;;;;;;10.75;4.60;;;;;;;2.36;69.23;99014.61;1721856;82;21020;-85
2022/04/18 06:01:06;;;;;;;8.10;3.77;;;;;;;2.47;68.95;99013.41;1693041;80;21052;-84
2022/04/18 06:03:40;;;;;;;11.83;4.28;;;;;;;2.56;69.15;99010.45;1687733;81;21047;31
2022/04/18 06:06:08;;;;;;;7.15;3.77;;;;;;;2.65;68.33;99009.66;1650520;85;21090;-84
2022/04/18 06:08:35;;;;;;;12.07;4.00;;;;;;;2.75;67.57;99008.00;1650398;84;21103;-86
2022/04/18 06:11:03;;;;;;;7.17;3.75;;;;;;;2.85;67.98;99007.19;1705997;81;21100;-86
2022/04/18 06:13:38;;;;;;;11.22;4.25;;;;;;;2.97;66.98;99014.09;1712861;80;21183;-87
2022/04/18 06:16:06;;;;;;;9.58;4.42;;;;;;;3.07;66.62;99011.14;1754084;79;21071;-83
2022/04/18 06:18:35;;;;;;;9.60;4.30;;;;;;;3.11;64.36;99004.72;1766362;79;21056;-84
2022/04/18 06:21:04;;;;;;;8.20;4.35;;;;;;;3.18;64.52;99005.59;1699583;79;21700;-89
2022/04/18 06:23:32;;;;;;;11.35;4.55;;;;;;;3.22;64.51;99013.73;1659356;83;21012;-85
2022/04/18 06:26:17;;;;;;;9.83;4.45;;;;;;;3.28;64.92;99011.21;1659272;81;21168;-84
2022/04/18 06:28:45;;;;;;;12.50;3.98;;;;;;;3.37;65.06;99006.08;1678814;81;21088;-88
2022/04/18 06:31:12;;;;;;;8.95;3.85;;;;;;;3.43;65.73;99006.96;1699873;80;21188;-85
2022/04/18 06:33:47;;;;;;;6.83;4.00;;;;;;;3.47;65.69;99008.68;1646142;81;21083;-87
2022/04/18 06:36:14;;;;;;;9.28;3.55;;;;;;;3.54;64.57;99008.70;1696074;82;21048;-89
2022/04/18 06:38:42;;;;;;;6.83;3.50;;;;;;;3.63;63.29;99009.13;1726525;81;21091;-89
2022/04/18 06:41:11;;;;;;;6.10;3.30;;;;;;;3.68;62.66;99007.44;1715347;81;21168;-89
2022/04/18 06:43:38;;;;;;;6.87;3.30;;;;;;;3.78;61.16;99000.59;1733329;82;21137;-87
2022/04/18 06:46:06;;;;;;;4.47;2.50;;;;;;;3.86;62.91;99003.14;1705821;79;21103;-90
2022/04/18 06:48:33;;;;;;;3.52;2.35;;;;;;;3.98;61.00;99007.88;1726775;83;21027;-89
2022/04/18 06:51:18;;;;;;;4.72;2.83;;;;;;;4.05;58.26;98998.44;1685807;82;21048;-84
2022/04/18 06:53:53;;;;;;;7.17;2.33;;;;;;;4.18;60.78;99002.72;1705447;80;21647;-89
2022/04/18 06:59:20;;;;;;;3.52;1.95;;;;;;;4.41;59.57;98999.25;1701626;80;21539;-90
2022/04/18 07:01:49;;;;;;;6.15;2.35;;;;;;;4.55;60.65;98997.50;1721052;79;21047;-88
2022/04/18 07:04:16;;;;;;;6.05;2.20;;;;;;;4.66;60.62;98991.05;1717173;83;21100;-90
2022/04/18 07:06:43;;;;;;;5.17;2.60;;;;;;;4.76;59.79;98996.59;1717118;82;21072;-90
2022/04/18 07:09:11;;;;;;;4.95;2.22;;;;;;;4.89;60.01;98992.24;1686721;83;21174;-90
2022/04/18 07:11:42;;;;;;;4.58;2.08;;;;;;;4.98;56.58;98992.22;1680689;82;21215;-91
2022/04/18 07:14:09;;;;;;;3.45;1.80;;;;;;;5.05;57.21;98985.30;1691755;80;21084;-90
2022/04/18 07:16:35;;;;;;;5.40;2.00;;;;;;;5.13;55.35;98992.59;1693176;84;21072;-88
2022/04/18 07:19:03;;;;;;;4.40;2.27;;;;;;;5.20;55.99;98987.41;1645714;83;21116;-91
2022/04/18 07:21:31;;;;;;;3.47;1.80;;;;;;;5.26;57.06;98988.66;1633299;88;21516;-91
2022/04/18 07:23:57;;;;;;;6.35;2.55;;;;;;;5.32;57.69;98984.77;1607865;85;21590;-82
2022/04/18 07:26:25;;;;;;;5.78;2.40;;;;;;;5.38;57.41;98984.28;1614400;88;21042;-85
2022/04/18 07:28:53;;;;;;;4.90;2.47;;;;;;;5.49;55.46;98980.77;1613182;89;21012;-85
2022/04/18 07:31:20;;;;;;;5.05;2.08;;;;;;;5.60;56.87;98972.55;1652287;86;21012;-83
2022/04/18 07:33:47;;;;;;;5.28;2.00;;;;;;;5.66;57.34;98981.52;1624470;88;21055;-84
2022/04/18 07:36:15;;;;;;;5.20;2.30;;;;;;;5.77;57.80;98974.58;1635433;85;21369;-85
2022/04/18 07:38:51;;;;;;;4.30;2.30;;;;;;;5.88;56.45;98968.47;1641176;84;21053;-85
2022/04/18 07:41:26;;;;;;;4.65;2.40;;;;;;;5.95;56.50;98966.30;1680871;83;21060;-91
2022/04/18 07:43:55;;;;;;;3.70;2.10;;;;;;;5.97;56.02;98971.02;1671831;82;21115;-91
2022/04/18 07:46:22;;;;;;;4.17;2.37;;;;;;;6.06;56.22;98959.30;1648165;82;21029;-86
2022/04/18 07:48:51;;;;;;;4.78;2.10;;;;;;;6.20;55.28;98957.89;1684994;81;22444;-88
2022/04/18 07:54:17;;;;;;;4.85;2.05;;;;;;;6.29;54.91;98954.38;1654372;84;21625;-88
2022/04/18 07:56:44;;;;;;;4.70;2.30;;;;;;;6.41;54.04;98953.40;1644400;84;21621;-92
2022/04/18 07:59:12;;;;;;;3.83;2.30;;;;;;;6.52;52.67;98948.95;1646744;86;21456;-90
2022/04/18 08:01:39;;;;;;;4.15;2.22;;;;;;;6.59;53.89;98953.19;1642302;79;21127;-90
2022/04/18 08:04:07;;;;;;;4.05;1.98;;;;;;;6.61;53.83;98944.14;1707491;81;21114;-88
2022/04/18 08:06:35;;;;;;;3.37;1.75;;;;;;;6.68;53.72;98945.76;1711568;81;21080;-92
2022/04/18 08:09:10;;;;;;;3.40;1.70;;;;;;;6.73;54.46;98945.28;1644348;81;21159;-93
2022/04/18 08:11:37;;;;;;;3.70;2.05;;;;;;;6.77;51.81;98937.47;1669827;79;21075;-92
2022/04/18 08:14:04;;;;;;;3.95;2.00;;;;;;;6.81;51.95;98934.41;1700692;83;21098;-93
2022/04/18 08:16:50;;;;;;;5.28;2.27;;;;;;;6.86;52.23;98936.48;1687228;83;21085;-93
2022/04/18 08:19:28;;;;;;;3.77;2.12;;;;;;;6.92;53.03;98933.85;1659157;81;21151;-93
2022/04/18 08:21:56;;;;;;;7.62;2.87;;;;;;;7.01;51.65;98934.60;1705204;82;21207;-91
2022/04/18 08:24:24;;;;;;;3.92;2.22;;;;;;;7.09;53.62;98935.35;1739623;80;21615;-90
2022/04/18 08:27:09;;;;;;;4.95;2.55;;;;;;;7.22;53.32;98922.68;1745294;82;21345;-88
2022/04/18 08:29:37;;;;;;;5.70;2.30;;;;;;;7.34;53.96;98923.79;1744133;82;21024;-86
2022/04/18 08:32:13;;;;;;;3.80;1.95;;;;;;;7.50;53.78;98919.23;1698534;80;21222;-91
2022/04/18 08:34:41;;;;;;;6.30;2.20;;;;;;;7.71;54.30;98921.91;1695337;82;21071;-90
2022/04/18 08:37:11;;;;;;;4.33;1.57;;;;;;;7.88;52.63;98915.17;1735406;81;21063;-91
2022/04/18 08:39:57;;;;;;;3.42;1.98;;;;;;;7.97;50.82;98912.85;1644147;86;21198;-90
2022/04/18 08:42:28;;;;;;;2.40;1.55;;;;;;;7.95;48.13;98915.45;1676990;81;21180;-89
2022/04/18 08:44:55;;;;;;;3.15;1.60;;;;;;;7.97;49.17;98916.73;1728145;82;21065;-90
2022/04/18 08:52:56;;;;;;;3.47;1.60;;;;;;;8.00;46.81;98921.88;1666374;82;21091;-89
2022/04/18 08:55:24;;;;;;;3.27;1.77;;;;;;;7.92;44.62;98910.36;1649549;82;21101;-86
2022/04/18 08:58:16;;;;;;;3.08;1.60;;;;;;;7.96;47.60;98908.58;1649524;86;21066;-90
2022/04/18 09:01:00;;;;;;;4.58;1.70;;;;;;;8.05;48.18;98907.09;1617864;87;21082;-88
2022/04/18 09:03:56;;;;;;;2.67;1.70;;;;;;;8.16;44.61;98904.33;1653485;86;21067;-87
2022/04/18 09:06:38;;;;;;;5.53;1.87;;;;;;;8.28;47.39;98899.36;1652023;86;21090;-87
2022/04/18 09:09:35;;;;;;;3.33;1.75;;;;;;;8.36;47.94;98887.12;1653795;86;21046;-86
2022/04/18 09:12:27;;;;;;;4.37;1.85;;;;;;;8.45;45.47;98883.06;1632551;86;21034;-87
2022/04/18 09:15:34;;;;;;;7.30;2.08;;;;;;;8.42;45.03;98880.55;1573095;90;21046;-88
2022/04/18 09:18:24;;;;;;;1.85;1.20;;;;;;;8.51;47.60;98879.05;1542809;88;21117;-86
2022/04/18 09:21:11;;;;;;;2.70;1.70;;;;;;;8.67;44.71;98882.63;1572380;90;21174;-87
2022/04/18 09:23:40;;;;;;;4.08;1.40;;;;;;;8.60;44.96;98874.14;1528328;90;21167;-89
2022/04/18 09:26:12;;;;;;;3.90;1.50;;;;;;;8.71;45.45;98881.27;1656653;83;21650;-89
2022/04/18 09:28:41;;;;;;;4.62;1.82;;;;;;;8.82;40.96;98871.11;1693454;84;21110;-88
2022/04/18 09:31:10;;;;;;;1.87;1.30;;;;;;;8.85;44.58;98866.68;1666621;84;21078;-87
2022/04/18 09:33:55;;;;;;;3.10;1.52;;;;;;;8.87;43.17;98861.05;1693631;84;21067;-87
2022/04/18 09:36:24;;;;;;;3.85;1.50;;;;;;;8.88;41.87;98867.92;1693601;83;21023;-86
2022/04/18 09:38:57;;;;;;;2.00;1.20;;;;;;;8.88;42.58;98862.74;1693622;84;21059;-89
2022/04/18 09:41:32;;;;;;;3.35;1.60;;;;;;;8.86;38.74;98863.22;1693566;84;21047;-87
2022/04/18 09:44:12;;;;;;;3.92;1.50;;;;;;;8.93;42.67;98859.62;1662005;84;21053;-87
2022/04/18 09:46:42;;;;;;;3.87;1.50;;;;;;;9.00;43.24;98851.70;1663029;84;21045;-87
2022/04/18 09:49:11;;;;;;;2.25;1.32;;;;;;;9.15;41.68;98855.22;1663640;86;21052;-87
2022/04/18 09:51:42;;;;;;;2.72;1.40;;;;;;;9.21;38.64;98858.99;1659582;85;20998;-87
2022/04/18 09:54:14;;;;;;;4.45;1.50;;;;;;;9.12;39.45;98853.55;1616525;89;21041;-89
2022/04/18 09:56:51;;;;;;;4.33;1.40;;;;;;;9.08;39.63;98853.67;1667463;82;21132;-90
2022/04/18 09:59:19;;;;;;;3.08;1.60;;;;;;;9.11;38.42;98850.57;1643271;84;21099;-90
2022/04/18 10:01:47;;;;;;;4.42;1.70;;;;;;;9.25;41.41;98841.59;1620530;84;21171;-89
2022/04/18 10:04:14;;;;;;;2.08;1.37;;;;;;;9.44;40.00;98836.83;1624251;83;21203;-90
2022/04/18 10:06:44;;;;;;;6.87;1.75;;;;;;;9.63;41.87;98835.48;1625635;87;21097;-90
2022/04/18 10:09:13;;;;;;;8.63;2.40;;;;;;;9.74;41.36;98838.63;1622949;85;21096;-86
2022/04/18 10:11:40;;;;;;;2.87;1.50;;;;;;;9.87;40.53;98833.14;1622655;88;21053;-88
2022/04/18 10:14:07;;;;;;;4.12;2.02;;;;;;;9.99;40.70;98822.84;1622797;87;21097;-88
2022/04/18 10:16:34;;;;;;;2.87;1.62;;;;;;;10.01;35.89;98818.04;1623516;87;21069;-87
2022/04/18 10:19:13;;;;;;;3.10;1.72;;;;;;;10.05;38.35;98822.71;1632717;87;21051;-88
2022/04/18 10:21:44;;;;;;;5.03;1.82;;;;;;;10.03;40.05;98816.25;1649402;86;21079;-89
2022/04/18 10:24:18;;;;;;;2.67;1.70;;;;;;;10.16;39.51;98815.00;1643158;86;21112;-89
2022/04/18 10:27:25;;;;;;;3.62;1.82;;;;;;;10.24;39.20;98808.75;1636071;86;21109;-89
2022/04/18 10:29:55;;;;;;;3.20;1.72;;;;;;;10.38;39.62;98809.69;1636231;86;21073;-86
2022/04/18 10:32:25;;;;;;;2.90;1.52;;;;;;;10.43;39.16;98801.33;1665379;83;21414;-90
2022/04/18 10:34:55;;;;;;;4.25;1.60;;;;;;;10.53;37.06;98804.05;1706046;83;21079;-89
2022/04/18 10:37:24;;;;;;;3.35;1.70;;;;;;;10.60;38.37;98800.81;1701098;83;21058;-89
2022/04/18 10:40:04;;;;;;;5.12;1.92;;;;;;;10.52;38.57;98797.14;1701508;79;21060;-88
2022/04/18 10:42:43;;;;;;;4.95;1.70;;;;;;;10.57;37.16;98795.27;1724550;79;21655;-90
2022/04/18 10:45:19;;;;;;;3.05;1.50;;;;;;;10.73;37.75;98802.16;1740051;83;21005;-87
2022/04/18 10:48:06;;;;;;;3.62;1.40;;;;;;;10.87;32.37;98801.73;1740029;83;21021;-87
2022/04/18 10:50:46;;;;;;;3.33;1.57;;;;;;;11.00;34.05;98797.86;1740018;80;21097;-88
2022/04/18 10:53:34;;;;;;;5.10;2.33;;;;;;;11.08;35.06;98800.19;1739547;83;21073;-88
2022/04/18 10:56:08;;;;;;;2.98;1.80;;;;;;;11.32;35.97;98798.11;1733122;83;21046;-88
2022/04/18 10:58:35;;;;;;;;;;;;;;;11.52;36.22;98795.30;1713387;82;21057;-88
2022/04/18 11:01:06;;;;;;;3.47;1.60;;;;;;;11.61;32.20;98792.38;1764239;81;20199;-88
2022/04/18 11:03:49;;;;;;;3.30;1.60;;;;;;;11.83;36.39;98788.56;1754204;80;20993;-89
2022/04/18 11:06:21;;;;;;;4.47;2.00;;;;;;;12.01;35.75;98784.95;1740296;82;20954;-89
2022/04/18 11:09:01;;;;;;;4.85;1.80;;;;;;;12.26;35.62;98783.16;1740060;83;21036;-88
2022/04/18 11:11:51;;;;;;;3.77;1.75;;;;;;;12.31;35.14;98776.03;1740043;80;21085;-88
2022/04/18 11:14:25;;;;;;;2.92;1.55;;;;;;;12.44;35.45;98775.11;1739857;82;21032;-89
2022/04/18 11:16:56;;;;;;;2.67;1.75;;;;;;;12.86;35.73;98767.83;1739845;83;21041;-87
2022/04/18 11:19:26;;;;;;;3.22;1.87;;;;;;;13.19;34.04;98762.61;1739937;83;21021;-89
2022/04/18 11:22:04;;;;;;;9.23;2.72;;;;;;;13.47;32.46;98757.98;1739994;83;21022;-88
2022/04/18 11:24:39;;;;;;;4.30;2.17;;;;;;;13.99;34.78;98754.88;1739343;83;20947;-89
2022/04/18 11:27:15;;;;;;;3.83;1.62;;;;;;;14.43;34.28;98745.94;1739886;83;21076;-88
2022/04/18 11:29:45;;;;;;;4.95;1.70;;;;;;;14.61;32.05;98748.19;1738901;83;21039;-89
2022/04/18 11:32:19;;;;;;;2.67;1.50;;;;;;;14.68;31.41;98748.27;1738102;83;21027;-88
2022/04/18 11:34:47;;;;;;;;;;;;;;;14.82;29.82;98752.41;1740846;83;21075;-89
2022/04/18 11:37:39;;;;;;;7.65;3.02;;;;;;;14.86;28.22;98751.33;1738433;83;20120;-89
2022/04/18 11:40:10;;;;;;;5.22;2.42;;;;;;;15.02;30.96;98751.87;1719798;83;21101;-89
2022/04/18 11:42:40;;;;;;;4.20;2.00;;;;;;;15.08;28.25;98741.11;1702034;84;21125;-88
2022/04/18 11:45:23;;;;;;;3.95;1.57;;;;;;;15.14;32.81;98740.83;1709047;83;21132;-88
2022/04/18 11:47:50;;;;;;;2.40;1.55;;;;;;;14.88;28.73;98733.78;1709174;82;21039;-87
2022/04/18 11:50:23;;;;;;;3.45;1.70;;;;;;;14.99;28.62;98737.65;1708917;82;20995;-89
2022/04/18 11:53:00;;;;;;;2.83;1.52;;;;;;;14.92;29.28;98729.22;1708265;83;21040;-88
2022/04/18 11:55:26;;;;;;;2.77;1.52;;;;;;;14.88;29.00;98731.61;1706950;84;20990;-88
2022/04/18 11:57:53;;;;;;;5.00;1.60;;;;;;;14.65;28.35;98730.95;1680720;85;21021;-88
2022/04/18 12:08:46;;;;;;;2.70;1.70;;;;;;;14.46;25.34;98717.88;1707203;83;21578;-89
2022/04/18 12:11:13;;;;;;;2.90;1.80;;;;;;;14.48;27.85;98716.04;1675335;86;21063;-87
2022/04/18 12:13:46;;;;;;;3.67;1.50;;;;;;;14.51;29.42;98711.11;1681159;84;21016;-86
2022/04/18 12:16:19;;;;;;;4.62;1.60;;;;;;;14.69;29.55;98707.64;1681334;85;21091;-89
2022/04/18 12:18:46;;;;;;;4.72;1.57;;;;;;;14.68;29.73;98716.87;1681423;85;21083;-88
2022/04/18 12:21:13;;;;;;;8.25;2.67;;;;;;;14.70;27.39;98705.43;1698318;84;21019;-89
2022/04/18 12:23:40;;;;;;;2.92;1.82;;;;;;;14.91;29.46;98703.98;1709590;84;21017;-88
2022/04/18 12:26:12;;;;;;;2.37;1.45;;;;;;;14.98;29.73;98699.29;1675426;86;21063;-89
2022/04/18 12:28:39;;;;;;;2.75;1.60;;;;;;;14.87;28.46;98697.21;1673615;85;21034;-89
2022/04/18 12:31:10;;;;;;;3.47;1.55;;;;;;;14.77;28.37;98699.90;1654291;87;21071;-88
2022/04/18 12:33:49;;;;;;;3.92;1.70;;;;;;;14.60;25.51;98693.69;1654286;85;21095;-89
2022/04/18 12:36:32;;;;;;;2.62;1.50;;;;;;;14.65;29.55;98693.02;1654361;87;21127;-88
2022/04/18 12:38:59;;;;;;;;;;;;;;;14.50;27.95;98691.09;1644053;86;21028;-88
2022/04/18 12:41:31;;;;;;;2.92;1.57;;;;;;;14.49;25.96;98688.95;1654620;87;20127;-87
2022/04/18 12:43:58;;;;;;;4.37;1.92;;;;;;;14.46;28.05;98686.93;1655008;86;21073;-89
2022/04/18 12:46:33;;;;;;;4.22;2.22;;;;;;;14.40;28.51;98681.99;1658204;86;21095;-89
2022/04/18 12:49:11;;;;;;;3.02;1.70;;;;;;;14.32;28.76;98677.98;1708043;84;20996;-88
2022/04/18 12:51:42;;;;;;;3.62;1.80;;;;;;;14.16;28.58;98681.38;1668392;80;21110;-92
2022/04/18 12:54:24;;;;;;;3.80;1.65;;;;;;;14.01;27.63;98679.86;1685037;83;21112;-89
2022/04/18 12:56:53;;;;;;;5.10;1.85;;;;;;;13.85;27.10;98671.03;1685257;83;21158;-87
2022/04/18 12:59:26;;;;;;;13.35;6.00;;;;;;;13.80;28.57;98677.75;1684475;84;21008;-90
2022/04/18 13:02:05;;;;;;;7.33;3.20;;;;;;;13.81;28.65;98672.93;1658722;80;21098;-89
2022/04/18 13:04:32;;;;;;;8.13;4.28;;;;;;;13.91;27.79;98672.90;1617738;88;21121;-89
2022/04/18 13:07:04;;;;;;;8.15;2.15;;;;;;;13.96;27.88;98673.98;1617324;89;21366;-89
2022/04/18 13:09:31;;;;;;;7.03;2.50;;;;;;;14.06;28.70;98674.41;1617536;89;21109;-89
2022/04/18 13:12:05;;;;;;;3.72;1.87;;;;;;;14.03;28.96;98670.19;1617517;89;21147;-88
2022/04/18 13:14:34;;;;;;;4.08;1.82;;;;;;;13.95;26.52;98675.35;1617409;89;21106;-89
2022/04/18 13:17:09;;;;;;;3.17;1.70;;;;;;;13.83;28.31;98667.64;1617252;89;21026;-88
2022/04/18 13:19:38;;;;;;;3.05;1.42;;;;;;;13.82;27.63;98671.16;1617497;89;21157;-86
2022/04/18 13:22:06;;;;;;;6.10;1.75;;;;;;;13.85;27.86;98665.80;1617664;89;21008;-88
2022/04/18 13:24:33;;;;;;;3.98;1.55;;;;;;;13.61;27.23;98660.76;1621843;89;21050;-87
2022/04/18 13:27:00;;;;;;;2.85;1.42;;;;;;;13.50;27.05;98667.74;1646757;87;21264;-88
2022/04/18 13:29:27;;;;;;;17.67;2.47;;;;;;;13.37;26.84;98658.77;1666667;85;21004;-87
2022/04/18 13:31:54;;;;;;;2.50;1.40;;;;;;;13.34;26.57;98664.11;1688583;84;21028;-88
2022/04/18 13:34:22;;;;;;;6.80;2.00;;;;;;;13.36;26.82;98662.28;1688566;85;21541;-88
2022/04/18 13:36:48;;;;;;;5.80;3.05;;;;;;;13.29;27.94;98660.41;1657371;85;21028;-87
2022/04/18 13:39:15;;;;;;;9.15;4.40;;;;;;;13.27;27.66;98653.50;1647038;86;21088;-88
2022/04/18 13:41:43;;;;;;;6.20;2.55;;;;;;;13.20;28.23;98653.39;1647128;87;21039;-88
2022/04/18 13:44:10;;;;;;;3.85;1.50;;;;;;;13.18;27.71;98654.75;1647043;87;21039;-88
2022/04/18 13:46:39;;;;;;;2.42;1.50;;;;;;;13.09;26.54;98653.83;1646883;87;21047;-88
2022/04/18 13:49:06;;;;;;;2.80;1.50;;;;;;;13.00;27.40;98644.64;1652255;86;21030;-88
2022/04/18 13:51:33;;;;;;;3.05;1.67;;;;;;;13.10;28.29;98645.10;1662466;86;20989;-88
2022/04/18 13:54:01;;;;;;;3.70;1.85;;;;;;;13.06;27.61;98643.07;1647023;87;21011;-88
2022/04/18 13:56:30;;;;;;;3.10;1.77;;;;;;;13.17;27.23;98640.45;1664085;85;20970;-88
2022/04/18 13:58:58;;;;;;;2.92;1.60;;;;;;;13.25;28.65;98644.89;1657709;84;21058;-88
2022/04/18 14:01:25;;;;;;;4.95;1.57;;;;;;;13.21;28.25;98642.89;1618677;87;21077;-88
2022/04/18 14:03:52;;;;;;;4.42;1.60;;;;;;;13.26;26.52;98643.98;1648997;86;21052;-88
2022/04/18 14:06:19;;;;;;;2.90;1.50;;;;;;;13.27;26.50;98642.63;1649052;85;21107;-88
2022/04/18 14:08:45;;;;;;;4.35;1.62;;;;;;;13.36;27.49;98645.78;1592265;89;21048;-86
2022/04/18 14:11:16;;;;;;;3.42;1.55;;;;;;;13.42;26.09;98644.20;1619184;87;21021;-86
2022/04/18 14:13:41;;;;;;;3.37;1.60;;;;;;;13.39;25.06;98646.93;1594219;89;21114;-89
2022/04/18 14:21:40;;;;;;;3.65;1.35;;;;;;;14.00;27.10;98632.88;1627248;87;21087;-89
2022/04/18 14:24:07;;;;;;;4.55;1.70;;;;;;;14.43;28.24;98636.94;1648854;86;21034;-89
2022/04/18 14:26:34;;;;;;;2.65;1.62;;;;;;;14.65;25.81;98634.63;1619059;87;21042;-89
2022/04/18 14:29:01;;;;;;;4.95;1.65;;;;;;;14.95;27.99;98635.33;1619505;87;21036;-87
2022/04/18 14:31:32;;;;;;;2.92;1.62;;;;;;;15.27;27.80;98632.38;1648308;87;21043;-88
2022/04/18 14:33:58;;;;;;;4.45;1.95;;;;;;;15.75;27.49;98628.13;1618455;89;20999;-88
2022/04/18 14:36:25;;;;;;;3.17;1.70;;;;;;;16.31;26.70;98618.07;1650259;86;20964;-89
2022/04/18 14:38:52;;;;;;;5.97;1.87;;;;;;;16.79;24.28;98617.98;1649011;87;21100;-90
2022/04/18 14:41:18;;;;;;;3.75;1.75;;;;;;;17.10;25.43;98624.47;1649360;87;21160;-89
2022/04/18 14:43:45;;;;;;;3.83;1.67;;;;;;;16.72;24.29;98618.81;1654156;85;21037;-90
2022/04/18 14:46:12;;;;;;;3.92;1.80;;;;;;;16.72;25.01;98617.50;1634779;86;21072;-87
2022/04/18 14:48:39;;;;;;;7.47;2.10;;;;;;;16.46;24.09;98619.84;1651878;85;21078;-88
2022/04/18 14:51:05;;;;;;;3.05;1.70;;;;;;;16.36;25.19;98628.33;1674286;84;21127;-89
2022/04/18 14:53:32;;;;;;;4.65;1.80;;;;;;;15.70;23.17;98625.73;1674528;86;21063;-88
2022/04/18 14:55:59;;;;;;;4.72;1.52;;;;;;;15.42;23.63;98625.04;1650704;85;21089;-89
2022/04/18 14:58:25;;;;;;;2.70;1.50;;;;;;;15.14;25.39;98629.55;1665196;85;21051;-88
2022/04/18 15:00:54;;;;;;;3.30;1.80;;;;;;;14.81;25.16;98623.77;1668569;86;21004;-88
2022/04/18 15:03:21;;;;;;;3.10;1.77;;;;;;;14.63;25.98;98626.00;1670349;80;21069;-89
2022/04/18 15:05:47;;;;;;;3.35;1.70;;;;;;;14.38;24.58;98620.61;1700437;83;21028;-91
2022/04/18 15:08:14;;;;;;;3.70;2.02;;;;;;;14.16;26.01;98622.56;1697475;84;21030;-91
2022/04/18 15:10:40;;;;;;;4.70;2.00;;;;;;;13.94;25.27;98617.02;1698129;83;20994;-91
2022/04/18 15:13:07;;;;;;;5.95;1.98;;;;;;;13.65;25.25;98615.77;1697902;84;21061;-91
2022/04/18 15:15:34;;;;;;;3.37;2.35;;;;;;;13.48;25.19;98611.28;1698376;84;21069;-91
2022/04/18 15:18:00;;;;;;;6.05;2.33;;;;;;;13.35;25.46;98607.52;1699383;84;21549;-90
2022/04/18 15:20:27;;;;;;;2.92;1.90;;;;;;;13.31;26.76;98611.58;1699031;84;21022;-90
2022/04/18 15:22:54;;;;;;;6.42;2.02;;;;;;;13.32;26.97;98613.27;1698522;84;21053;-91
2022/04/18 15:25:20;;;;;;;5.12;2.25;;;;;;;13.40;27.17;98614.23;1699278;84;21026;-91
2022/04/18 15:27:47;;;;;;;5.08;2.50;;;;;;;13.24;26.64;98611.41;1698337;84;20982;-90
2022/04/18 15:32:58;;;;;;;6.92;4.83;;;;;;;13.13;26.81;98617.58;1702689;84;21067;-89
2022/04/18 15:35:25;;;;;;;4.28;2.17;;;;;;;12.97;26.12;98609.99;1703009;83;21006;-89
2022/04/18 15:37:52;;;;;;;3.52;2.25;;;;;;;12.82;25.95;98616.25;1702931;83;21038;-89
2022/04/18 15:40:23;;;;;;;7.50;2.60;;;;;;;12.63;26.78;98619.23;1701531;83;21007;-89
2022/04/18 15:42:47;;;;;;;5.35;2.40;;;;;;;12.51;26.66;98614.05;1674376;82;21114;-91
2022/04/18 15:45:15;;;;;;;4.00;1.98;;;;;;;12.42;27.24;98623.11;1644348;87;21148;-91
2022/04/18 15:47:43;;;;;;;4.58;2.00;;;;;;;12.39;27.07;98621.91;1668039;81;21102;-92
2022/04/18 15:50:11;;;;;;;16.40;6.00;;;;;;;12.39;27.35;98616.70;1685668;82;21094;-91
2022/04/18 15:52:39;;;;;;;19.62;7.40;;;;;;;12.20;27.08;98612.69;1713814;80;21135;-92
2022/04/18 15:55:08;;;;;;;10.32;4.55;;;;;;;12.11;27.38;98619.55;1742323;79;21094;-91
2022/04/18 15:57:35;;;;;;;5.42;2.87;;;;;;;12.00;27.73;98612.16;1753697;82;21030;-90
2022/04/18 16:00:02;;;;;;;5.85;2.58;;;;;;;11.75;26.87;98611.74;1697758;83;21543;-90
2022/04/18 16:02:30;;;;;;;5.33;1.92;;;;;;;11.63;27.62;98617.41;1666145;85;21001;-90
2022/04/18 16:04:57;;;;;;;4.17;2.40;;;;;;;11.55;27.75;98611.64;1694846;82;21071;-90